Time;durP1;ratioP1;P1;durP2;ratioP2;P2;SDS_P1;SDS_P2;PMS_P1;PMS_P2;Temp;Humidity;BMP_temperature;BMP_pressure;BME280_temperature;BME280_humidity;BME280_pressure;Samples;Min_cycle;Max_cycle;Signal;HPM_P1;HPM_P2
2022/08/22 00:00:13;;;;;;;7.63;4.47;;;;;;;;;;4991636;28;20538;-48
2022/08/22 00:02:58;;;;;;;4.60;3.93;;;;;;;;;;4992540;28;20419;-49
2022/08/22 00:05:34;;;;;;;7.10;5.10;;;;;;;;;;4990990;28;20506;-50
2022/08/22 00:08:29;;;;;;;5.80;4.17;;;;;;;;;;4992105;28;20915;-51
2022/08/22 00:11:17;;;;;;;8.43;4.57;;;;;;;;;;4983682;28;20419;-51
2022/08/22 00:13:59;;;;;;;8.20;3.90;;;;;;;;;;4990948;28;20431;-50
2022/08/22 00:16:31;;;;;;;4.33;3.93;;;;;;;;;;4991970;28;20395;-51
2022/08/22 00:19:06;;;;;;;5.30;4.00;;;;;;;;;;4991692;28;20466;-50
2022/08/22 00:21:40;;;;;;;4.23;3.73;;;;;;;;;;4991906;28;20372;-50
2022/08/22 00:24:24;;;;;;;5.47;4.10;;;;;;;;;;4992078;28;20407;-50
2022/08/22 00:26:54;;;;;;;8.00;4.20;;;;;;;;;;4991939;28;20518;-52
2022/08/22 00:29:26;;;;;;;6.57;4.30;;;;;;;;;;4991723;28;20517;-50
2022/08/22 00:32:00;;;;;;;5.10;4.70;;;;;;;;;;4991910;28;20865;-50
2022/08/22 00:34:32;;;;;;;7.47;4.47;;;;;;;;;;4994697;28;20409;-51
2022/08/22 00:37:01;;;;;;;8.80;4.90;;;;;;;;;;4995212;28;20379;-51
2022/08/22 00:39:42;;;;;;;7.20;4.50;;;;;;;;;;4993141;28;20451;-51
2022/08/22 00:42:08;;;;;;;6.13;4.67;;;;;;;;;;4995278;28;20749;-51
2022/08/22 00:44:34;;;;;;;4.90;4.40;;;;;;;;;;4995157;28;20768;-51
2022/08/22 00:47:15;;;;;;;4.73;4.23;;;;;;;;;;4995059;28;20415;-50
2022/08/22 00:49:41;;;;;;;12.43;5.67;;;;;;;;;;4994814;28;20485;-51
2022/08/22 00:52:17;;;;;;;14.10;6.70;;;;;;;;;;4995059;28;20472;-50
2022/08/22 00:54:58;;;;;;;9.10;6.93;;;;;;;;;;4995049;28;20399;-50
2022/08/22 00:57:27;;;;;;;6.47;5.70;;;;;;;;;;4994865;28;20487;-50
2022/08/22 00:59:53;;;;;;;10.50;5.90;;;;;;;;;;4994563;28;20530;-49
2022/08/22 01:02:22;;;;;;;6.43;5.77;;;;;;;;;;4994471;28;20468;-50
2022/08/22 01:05:03;;;;;;;10.50;6.50;;;;;;;;;;4994480;28;20376;-50
2022/08/22 01:07:32;;;;;;;10.77;6.00;;;;;;;;;;4994802;28;20391;-51
2022/08/22 01:10:17;;;;;;;5.80;5.30;;;;;;;;;;4993162;28;20463;-51
2022/08/22 01:12:55;;;;;;;8.53;7.30;;;;;;;;;;4994087;28;20877;-50
2022/08/22 01:15:23;;;;;;;9.60;5.60;;;;;;;;;;4994714;28;20872;-51
2022/08/22 01:17:52;;;;;;;13.83;6.40;;;;;;;;;;4994468;28;20429;-50
2022/08/22 01:20:33;;;;;;;10.87;5.80;;;;;;;;;;4994478;28;20430;-50
2022/08/22 01:23:17;;;;;;;11.60;6.20;;;;;;;;;;4994601;28;21009;-51
2022/08/22 01:25:55;;;;;;;7.03;5.30;;;;;;;;;;4994764;28;20794;-50
2022/08/22 01:28:37;;;;;;;18.53;6.50;;;;;;;;;;4994144;28;20813;-51
2022/08/22 01:31:36;;;;;;;12.87;5.53;;;;;;;;;;4994603;28;20874;-50
2022/08/22 01:34:20;;;;;;;11.03;5.50;;;;;;;;;;4971970;28;20807;-51
2022/08/22 01:37:04;;;;;;;8.40;5.47;;;;;;;;;;4993986;28;20382;-49
2022/08/22 01:39:43;;;;;;;9.93;5.23;;;;;;;;;;4993883;28;20451;-50
2022/08/22 01:42:12;;;;;;;9.03;6.40;;;;;;;;;;4990898;28;20839;-50
2022/08/22 01:44:56;;;;;;;8.73;5.47;;;;;;;;;;4993745;28;20938;-51
2022/08/22 01:47:52;;;;;;;8.13;5.53;;;;;;;;;;4994041;28;20410;-50
2022/08/22 01:50:21;;;;;;;11.43;5.83;;;;;;;;;;4957509;28;20404;-51
2022/08/22 01:53:10;;;;;;;6.20;5.60;;;;;;;;;;4993970;28;20388;-50
2022/08/22 01:55:41;;;;;;;7.00;5.37;;;;;;;;;;4993815;28;20493;-49
2022/08/22 01:58:36;;;;;;;13.37;6.10;;;;;;;;;;4993765;28;21008;-50
2022/08/22 02:01:15;;;;;;;13.03;5.60;;;;;;;;;;4985130;28;20429;-50
2022/08/22 02:03:41;;;;;;;9.23;5.87;;;;;;;;;;4993551;28;20378;-50
2022/08/22 02:06:12;;;;;;;9.37;5.50;;;;;;;;;;4993683;28;20492;-50
2022/08/22 02:08:59;;;;;;;6.80;5.00;;;;;;;;;;4993420;28;20505;-50
2022/08/22 02:11:37;;;;;;;7.07;5.80;;;;;;;;;;4991936;28;20417;-49
2022/08/22 02:14:12;;;;;;;10.53;5.40;;;;;;;;;;4993430;28;20419;-50
2022/08/22 02:16:39;;;;;;;8.87;6.80;;;;;;;;;;4993324;28;20828;-52
2022/08/22 02:19:26;;;;;;;7.40;5.97;;;;;;;;;;4992977;28;20499;-51
2022/08/22 02:21:55;;;;;;;12.80;5.77;;;;;;;;;;4993173;28;20442;-50
2022/08/22 02:24:37;;;;;;;10.37;5.60;;;;;;;;;;4993344;28;20384;-50
2022/08/22 02:27:08;;;;;;;11.73;7.00;;;;;;;;;;4993545;28;20407;-50
2022/08/22 02:29:57;;;;;;;11.70;6.00;;;;;;;;;;4992942;28;20405;-50
2022/08/22 02:32:29;;;;;;;8.07;5.07;;;;;;;;;;4993240;28;20450;-50
2022/08/22 02:35:04;;;;;;;9.80;6.10;;;;;;;;;;4993017;28;20384;-50
2022/08/22 02:37:47;;;;;;;10.50;5.33;;;;;;;;;;4993139;28;20846;-50
2022/08/22 02:40:27;;;;;;;6.40;5.60;;;;;;;;;;4991791;28;20477;-51
2022/08/22 02:43:07;;;;;;;8.37;5.50;;;;;;;;;;4993030;28;20389;-50
2022/08/22 02:45:37;;;;;;;17.00;7.27;;;;;;;;;;4992962;28;20389;-50
2022/08/22 02:48:03;;;;;;;10.17;6.83;;;;;;;;;;4992795;28;20900;-49
2022/08/22 02:50:32;;;;;;;10.90;7.77;;;;;;;;;;4992785;28;20459;-50
2022/08/22 02:53:05;;;;;;;14.83;7.80;;;;;;;;;;4992749;28;20753;-51
2022/08/22 02:55:38;;;;;;;15.40;8.30;;;;;;;;;;4992103;28;20470;-50
2022/08/22 02:58:07;;;;;;;14.10;8.37;;;;;;;;;;4992687;28;20618;-50
2022/08/22 03:00:44;;;;;;;11.57;7.60;;;;;;;;;;4992432;28;20425;-50
2022/08/22 03:03:27;;;;;;;11.90;7.23;;;;;;;;;;4992727;28;20404;-50
2022/08/22 03:05:59;;;;;;;12.27;6.87;;;;;;;;;;4992602;28;20382;-50
2022/08/22 03:08:33;;;;;;;10.87;5.83;;;;;;;;;;4992386;28;20463;-51
2022/08/22 03:11:02;;;;;;;15.03;6.70;;;;;;;;;;4991704;28;20482;-50
2022/08/22 03:13:43;;;;;;;12.23;7.23;;;;;;;;;;4992772;28;20385;-50
2022/08/22 03:16:13;;;;;;;13.93;7.93;;;;;;;;;;4992521;28;20458;-50
2022/08/22 03:18:47;;;;;;;17.30;9.70;;;;;;;;;;4992135;28;20431;-50
2022/08/22 03:21:13;;;;;;;10.90;7.00;;;;;;;;;;4992716;28;20448;-50
2022/08/22 03:23:45;;;;;;;16.70;6.87;;;;;;;;;;4992515;28;20402;-50
2022/08/22 03:26:24;;;;;;;13.93;6.17;;;;;;;;;;4992443;28;20417;-50
2022/08/22 03:28:52;;;;;;;7.93;6.10;;;;;;;;;;4992207;28;20927;-50
2022/08/22 03:31:20;;;;;;;12.33;6.03;;;;;;;;;;4992332;28;20408;-50
2022/08/22 03:34:06;;;;;;;8.03;6.23;;;;;;;;;;4992429;28;20390;-50
2022/08/22 03:36:33;;;;;;;14.67;6.83;;;;;;;;;;4992271;28;20407;-50
2022/08/22 03:39:07;;;;;;;14.00;6.17;;;;;;;;;;4992032;28;20466;-50
2022/08/22 03:41:45;;;;;;;9.97;5.40;;;;;;;;;;4991481;28;20432;-49
2022/08/22 03:44:47;;;;;;;12.50;5.40;;;;;;;;;;4991528;28;20953;-49
2022/08/22 03:47:15;;;;;;;12.10;5.87;;;;;;;;;;4951309;29;20420;-49
2022/08/22 03:49:44;;;;;;;13.17;8.03;;;;;;;;;;4984221;28;20432;-50
2022/08/22 03:52:10;;;;;;;16.90;6.03;;;;;;;;;;4992045;28;20504;-51
2022/08/22 03:54:39;;;;;;;15.10;6.63;;;;;;;;;;4992228;28;20387;-50
2022/08/22 03:57:11;;;;;;;10.97;5.43;;;;;;;;;;4992079;28;20416;-50
2022/08/22 03:59:37;;;;;;;12.03;6.20;;;;;;;;;;4991761;28;20451;-51
2022/08/22 04:02:16;;;;;;;18.43;6.20;;;;;;;;;;4992141;28;20433;-51
2022/08/22 04:04:48;;;;;;;8.93;5.83;;;;;;;;;;4992577;28;20487;-51
2022/08/22 04:07:14;;;;;;;12.70;6.77;;;;;;;;;;4993218;28;20439;-50
2022/08/22 04:09:55;;;;;;;18.37;6.43;;;;;;;;;;4994690;28;20454;-49
2022/08/22 04:12:41;;;;;;;16.27;6.60;;;;;;;;;;4995217;28;20439;-50
2022/08/22 04:15:10;;;;;;;21.77;6.20;;;;;;;;;;4995368;28;20398;-50
2022/08/22 04:17:36;;;;;;;15.10;6.40;;;;;;;;;;4995623;28;20484;-51
2022/08/22 04:20:05;;;;;;;11.03;6.27;;;;;;;;;;4995408;28;20909;-50
2022/08/22 04:22:34;;;;;;;7.63;6.87;;;;;;;;;;4996045;28;20401;-50
2022/08/22 04:25:09;;;;;;;12.20;7.43;;;;;;;;;;4995568;28;20462;-49
2022/08/22 04:27:46;;;;;;;15.30;6.83;;;;;;;;;;4995553;28;20891;-50
2022/08/22 04:30:16;;;;;;;14.73;6.30;;;;;;;;;;4995328;28;20435;-50
2022/08/22 04:33:05;;;;;;;13.90;7.20;;;;;;;;;;4995616;28;20827;-50
2022/08/22 04:35:36;;;;;;;15.03;6.80;;;;;;;;;;4976386;28;20416;-50
2022/08/22 04:38:02;;;;;;;9.80;6.60;;;;;;;;;;4995082;28;20462;-50
2022/08/22 04:40:33;;;;;;;15.27;8.23;;;;;;;;;;4994039;28;20804;-50
2022/08/22 04:43:05;;;;;;;20.67;6.80;;;;;;;;;;4995292;28;20414;-50
2022/08/22 04:45:39;;;;;;;14.63;7.37;;;;;;;;;;4995555;28;20428;-49
2022/08/22 04:48:09;;;;;;;25.93;8.70;;;;;;;;;;4995072;28;20404;-50
2022/08/22 04:50:47;;;;;;;14.50;9.00;;;;;;;;;;4995023;28;20403;-49
2022/08/22 04:53:13;;;;;;;18.87;8.07;;;;;;;;;;4994973;28;20383;-50
2022/08/22 04:55:46;;;;;;;10.70;8.37;;;;;;;;;;4995259;28;20386;-50
2022/08/22 04:58:18;;;;;;;11.20;7.10;;;;;;;;;;4994825;28;20489;-50
2022/08/22 05:01:02;;;;;;;22.60;7.77;;;;;;;;;;4994668;28;20414;-50
2022/08/22 05:03:29;;;;;;;12.40;7.30;;;;;;;;;;4994856;28;20872;-49
2022/08/22 05:05:57;;;;;;;15.30;6.63;;;;;;;;;;4994790;28;20425;-49
2022/08/22 05:08:25;;;;;;;9.87;7.67;;;;;;;;;;4994599;28;20428;-52
2022/08/22 05:10:51;;;;;;;9.80;7.27;;;;;;;;;;4993636;28;20432;-49
2022/08/22 05:13:21;;;;;;;8.60;6.60;;;;;;;;;;4994590;28;20400;-50
2022/08/22 05:15:49;;;;;;;20.50;7.60;;;;;;;;;;4994657;28;20373;-50
2022/08/22 05:18:21;;;;;;;9.10;7.30;;;;;;;;;;4994131;28;20457;-49
2022/08/22 05:20:49;;;;;;;13.30;6.87;;;;;;;;;;4994193;28;20420;-50
2022/08/22 05:23:21;;;;;;;10.33;7.10;;;;;;;;;;4994487;28;20811;-51
2022/08/22 05:25:49;;;;;;;11.40;7.80;;;;;;;;;;4994345;28;20874;-51
2022/08/22 05:28:20;;;;;;;18.97;8.17;;;;;;;;;;4994282;28;20415;-50
2022/08/22 05:30:47;;;;;;;15.23;7.60;;;;;;;;;;4994294;28;20386;-50
2022/08/22 05:33:25;;;;;;;11.60;8.67;;;;;;;;;;4994358;28;20411;-50
2022/08/22 05:35:53;;;;;;;11.67;7.63;;;;;;;;;;4994276;28;20475;-51
2022/08/22 05:38:22;;;;;;;15.73;8.40;;;;;;;;;;4993981;28;21008;-51
2022/08/22 05:40:52;;;;;;;15.43;9.23;;;;;;;;;;4992320;28;20518;-52
2022/08/22 05:43:20;;;;;;;22.63;10.50;;;;;;;;;;4993538;28;20414;-50
2022/08/22 05:45:47;;;;;;;25.73;10.80;;;;;;;;;;4993993;28;20383;-50
2022/08/22 05:48:17;;;;;;;17.80;10.07;;;;;;;;;;4993981;28;20412;-50
2022/08/22 05:50:54;;;;;;;22.33;10.10;;;;;;;;;;4993857;28;20462;-50
2022/08/22 05:53:20;;;;;;;14.03;8.97;;;;;;;;;;4994056;28;20408;-50
2022/08/22 05:55:49;;;;;;;20.47;9.57;;;;;;;;;;4993892;28;20487;-51
2022/08/22 05:58:15;;;;;;;12.80;9.03;;;;;;;;;;4993592;28;20446;-52
2022/08/22 06:00:42;;;;;;;18.70;9.20;;;;;;;;;;4993689;28;20745;-50
2022/08/22 06:03:18;;;;;;;27.07;10.53;;;;;;;;;;4994527;28;20378;-51
2022/08/22 06:05:46;;;;;;;14.53;8.30;;;;;;;;;;4993640;28;20374;-52
2022/08/22 06:08:22;;;;;;;25.07;9.40;;;;;;;;;;4993225;28;20408;-52
2022/08/22 06:10:50;;;;;;;21.83;9.00;;;;;;;;;;4974144;28;20555;-51
2022/08/22 06:13:25;;;;;;;18.10;6.93;;;;;;;;;;4974062;28;20397;-51
2022/08/22 06:16:02;;;;;;;14.83;8.83;;;;;;;;;;4973949;28;20915;-51
2022/08/22 06:18:28;;;;;;;10.40;7.83;;;;;;;;;;4973771;28;20472;-52
2022/08/22 06:20:57;;;;;;;13.67;8.80;;;;;;;;;;4973933;28;20959;-52
2022/08/22 06:23:31;;;;;;;14.77;9.07;;;;;;;;;;4973999;28;20408;-52
2022/08/22 06:25:59;;;;;;;13.47;9.30;;;;;;;;;;4973809;28;20467;-51
2022/08/22 06:28:26;;;;;;;9.93;7.00;;;;;;;;;;4973576;28;20427;-51
2022/08/22 06:30:54;;;;;;;11.23;7.87;;;;;;;;;;4972996;28;20376;-51
2022/08/22 06:33:22;;;;;;;11.33;7.60;;;;;;;;;;4973934;28;20444;-52
2022/08/22 06:38:53;;;;;;;12.57;8.20;;;;;;;;;;4981755;28;20470;-50
2022/08/22 06:41:20;;;;;;;13.70;7.97;;;;;;;;;;4979504;28;20633;-50
2022/08/22 06:43:47;;;;;;;11.20;7.23;;;;;;;;;;4992102;28;20447;-51
2022/08/22 06:46:15;;;;;;;12.97;7.80;;;;;;;;;;4992993;28;20397;-51
2022/08/22 06:48:42;;;;;;;13.60;7.97;;;;;;;;;;4991464;28;20514;-51
2022/08/22 06:51:08;;;;;;;9.53;7.40;;;;;;;;;;4992872;28;20405;-51
2022/08/22 06:53:37;;;;;;;21.37;8.60;;;;;;;;;;4991881;28;20405;-51
2022/08/22 06:56:06;;;;;;;15.80;8.00;;;;;;;;;;4992850;28;20450;-52
2022/08/22 06:58:34;;;;;;;18.83;8.60;;;;;;;;;;4992565;28;20551;-51
2022/08/22 07:01:04;;;;;;;8.27;7.10;;;;;;;;;;4992676;28;20897;-51
2022/08/22 07:03:34;;;;;;;13.67;8.47;;;;;;;;;;4992993;28;20491;-51
2022/08/22 07:06:00;;;;;;;14.00;8.40;;;;;;;;;;4992614;28;20398;-50
2022/08/22 07:08:29;;;;;;;11.03;8.60;;;;;;;;;;4992538;28;20453;-50
2022/08/22 07:10:57;;;;;;;15.30;8.20;;;;;;;;;;4991564;28;20432;-51
2022/08/22 07:13:24;;;;;;;13.90;7.20;;;;;;;;;;4992644;28;20414;-50
2022/08/22 07:15:55;;;;;;;12.50;8.10;;;;;;;;;;4992604;28;20488;-51
2022/08/22 07:18:23;;;;;;;18.20;7.60;;;;;;;;;;4992492;28;20446;-52
2022/08/22 07:20:51;;;;;;;8.83;5.07;;;;;;;;;;4991666;28;20434;-50
2022/08/22 07:23:46;;;;;;;10.70;5.73;;;;;;;;;;4991529;28;20971;-51
2022/08/22 07:26:13;;;;;;;10.87;5.60;;;;;;;;;;4991339;28;20419;-51
2022/08/22 07:28:44;;;;;;;10.33;5.50;;;;;;;;;;4992157;28;20923;-52
2022/08/22 07:31:17;;;;;;;12.03;6.00;;;;;;;;;;4992471;28;20411;-52
2022/08/22 07:33:48;;;;;;;6.40;4.90;;;;;;;;;;4992508;28;20487;-51
2022/08/22 07:36:20;;;;;;;8.90;6.53;;;;;;;;;;4992311;28;20487;-50
2022/08/22 07:38:51;;;;;;;11.23;6.70;;;;;;;;;;4992018;28;20464;-52
2022/08/22 07:41:22;;;;;;;10.90;6.77;;;;;;;;;;4991158;28;20471;-52
2022/08/22 07:43:56;;;;;;;6.97;5.93;;;;;;;;;;4996218;28;20797;-51
2022/08/22 07:46:31;;;;;;;10.50;6.90;;;;;;;;;;4996237;28;20401;-52
2022/08/22 07:49:01;;;;;;;7.63;5.83;;;;;;;;;;4995994;28;20433;-51
2022/08/22 07:51:34;;;;;;;8.20;6.40;;;;;;;;;;4996173;28;20409;-52
2022/08/22 07:54:08;;;;;;;8.93;6.23;;;;;;;;;;4996159;28;20406;-51
2022/08/22 07:56:41;;;;;;;8.50;4.90;;;;;;;;;;4996060;28;20426;-51
2022/08/22 07:59:13;;;;;;;14.97;6.17;;;;;;;;;;4995656;28;20466;-50
2022/08/22 08:01:44;;;;;;;11.07;6.70;;;;;;;;;;4996011;28;20412;-50
2022/08/22 08:04:12;;;;;;;8.87;5.73;;;;;;;;;;4996030;28;20759;-52
2022/08/22 08:06:38;;;;;;;10.40;5.17;;;;;;;;;;4995797;28;20415;-52
2022/08/22 08:09:05;;;;;;;9.00;5.87;;;;;;;;;;4995499;28;20423;-52
2022/08/22 08:11:34;;;;;;;8.40;5.43;;;;;;;;;;4994590;28;20436;-52
2022/08/22 08:14:02;;;;;;;6.30;4.80;;;;;;;;;;4995751;28;20427;-52
2022/08/22 08:16:33;;;;;;;6.57;4.20;;;;;;;;;;4995660;28;20777;-50
2022/08/22 08:19:00;;;;;;;7.30;4.30;;;;;;;;;;4995276;28;20459;-52
2022/08/22 08:21:48;;;;;;;7.00;4.07;;;;;;;;;;4995608;28;20404;-50
2022/08/22 08:24:15;;;;;;;7.03;3.80;;;;;;;;;;4995657;28;20496;-50
2022/08/22 08:29:29;;;;;;;10.00;3.43;;;;;;;;;;4995238;28;20461;-51
2022/08/22 08:31:55;;;;;;;4.83;2.80;;;;;;;;;;4994084;28;20835;-51
2022/08/22 08:34:23;;;;;;;5.80;2.90;;;;;;;;;;4988164;28;20420;-51
2022/08/22 08:37:09;;;;;;;3.90;2.53;;;;;;;;;;4995179;28;20419;-51
2022/08/22 08:39:37;;;;;;;5.23;2.93;;;;;;;;;;4994674;28;20804;-51
2022/08/22 08:42:22;;;;;;;4.80;2.60;;;;;;;;;;4993362;28;20792;-52
2022/08/22 08:44:50;;;;;;;3.37;2.37;;;;;;;;;;4994296;28;20435;-52
2022/08/22 08:47:17;;;;;;;3.13;2.30;;;;;;;;;;4994283;28;20474;-51
2022/08/22 08:49:51;;;;;;;5.43;2.67;;;;;;;;;;4993545;28;20440;-52
2022/08/22 08:52:28;;;;;;;3.20;2.57;;;;;;;;;;4993959;28;20377;-52
2022/08/22 08:55:06;;;;;;;5.20;2.60;;;;;;;;;;4993924;28;20435;-51
2022/08/22 08:57:35;;;;;;;4.33;2.90;;;;;;;;;;4993985;28;20459;-51
2022/08/22 09:00:12;;;;;;;5.10;2.87;;;;;;;;;;4994568;28;20451;-51
2022/08/22 09:02:43;;;;;;;4.53;2.70;;;;;;;;;;4994766;28;20789;-51
2022/08/22 09:05:15;;;;;;;2.37;2.10;;;;;;;;;;4994659;28;20408;-52
2022/08/22 09:07:47;;;;;;;9.87;4.80;;;;;;;;;;4994621;28;20458;-51
2022/08/22 09:10:22;;;;;;;6.00;2.60;;;;;;;;;;4994403;28;20428;-51
2022/08/22 09:13:07;;;;;;;4.80;2.40;;;;;;;;;;4992713;28;20435;-50
2022/08/22 09:15:40;;;;;;;8.00;2.30;;;;;;;;;;4994532;28;20400;-52
2022/08/22 09:18:17;;;;;;;5.27;2.40;;;;;;;;;;4994491;28;20458;-52
2022/08/22 09:20:46;;;;;;;3.00;2.37;;;;;;;;;;4994296;28;20415;-52
2022/08/22 09:23:12;;;;;;;2.97;2.27;;;;;;;;;;4994351;28;20404;-52
2022/08/22 09:26:14;;;;;;;5.07;2.57;;;;;;;;;;4994207;28;20414;-52
2022/08/22 09:28:46;;;;;;;4.77;2.50;;;;;;;;;;4952904;29;20545;-53
2022/08/22 09:31:28;;;;;;;3.80;2.70;;;;;;;;;;4987862;28;20416;-52
2022/08/22 09:34:14;;;;;;;7.30;3.40;;;;;;;;;;4994177;28;20412;-52
2022/08/22 09:36:58;;;;;;;6.93;3.43;;;;;;;;;;4973492;28;20424;-51
2022/08/22 09:39:33;;;;;;;4.37;3.20;;;;;;;;;;4993740;28;20821;-52
2022/08/22 09:42:05;;;;;;;4.90;2.53;;;;;;;;;;4992781;28;20975;-51
2022/08/22 09:44:42;;;;;;;4.63;2.47;;;;;;;;;;4985434;28;20511;-51
2022/08/22 09:47:23;;;;;;;2.90;1.83;;;;;;;;;;4994057;28;20494;-51
2022/08/22 09:49:55;;;;;;;7.37;6.60;;;;;;;;;;4993652;28;20923;-52
2022/08/22 09:52:30;;;;;;;4.50;3.03;;;;;;;;;;4993695;28;20400;-52
2022/08/22 09:55:02;;;;;;;6.80;2.80;;;;;;;;;;4993752;28;20399;-51
2022/08/22 09:57:31;;;;;;;5.37;2.13;;;;;;;;;;4993710;28;20447;-52
2022/08/22 10:00:18;;;;;;;3.03;2.00;;;;;;;;;;4993374;28;20435;-51
2022/08/22 10:02:49;;;;;;;4.33;2.40;;;;;;;;;;4993653;28;20403;-52
2022/08/22 10:05:18;;;;;;;3.27;2.33;;;;;;;;;;4992371;28;20654;-52
2022/08/22 10:08:03;;;;;;;4.83;2.90;;;;;;;;;;4993293;28;20404;-52
2022/08/22 10:10:45;;;;;;;3.23;1.90;;;;;;;;;;4990275;28;20806;-52
2022/08/22 10:13:31;;;;;;;2.43;2.03;;;;;;;;;;4973741;28;20437;-52
2022/08/22 10:16:15;;;;;;;5.07;1.90;;;;;;;;;;4973861;28;20411;-52
2022/08/22 10:18:53;;;;;;;6.60;2.43;;;;;;;;;;4982711;28;20893;-53
2022/08/22 10:21:30;;;;;;;14.13;2.70;;;;;;;;;;4993070;28;20407;-54
2022/08/22 10:24:15;;;;;;;5.23;1.90;;;;;;;;;;4993362;28;20396;-51
2022/08/22 10:26:47;;;;;;;5.73;2.47;;;;;;;;;;4993214;28;20815;-52
2022/08/22 10:29:35;;;;;;;2.53;1.90;;;;;;;;;;4993073;28;20831;-52
2022/08/22 10:32:09;;;;;;;5.70;2.43;;;;;;;;;;4993151;28;20392;-54
2022/08/22 10:34:36;;;;;;;4.23;1.73;;;;;;;;;;4993302;28;20403;-52
2022/08/22 10:37:02;;;;;;;3.53;1.63;;;;;;;;;;4993190;28;20471;-52
2022/08/22 10:39:33;;;;;;;3.97;1.87;;;;;;;;;;4992737;28;20970;-52
2022/08/22 10:42:18;;;;;;;4.23;2.00;;;;;;;;;;4991652;28;20181;-52
2022/08/22 10:44:47;;;;;;;5.93;1.77;;;;;;;;;;4992862;28;20434;-52
2022/08/22 10:47:13;;;;;;;3.67;1.50;;;;;;;;;;4991584;28;20411;-52
2022/08/22 10:49:44;;;;;;;2.90;1.70;;;;;;;;;;4992549;28;20412;-52
2022/08/22 10:52:13;;;;;;;5.83;2.13;;;;;;;;;;4992566;28;20519;-54
2022/08/22 10:54:39;;;;;;;2.90;1.83;;;;;;;;;;4992662;28;20411;-52
2022/08/22 10:57:13;;;;;;;2.70;1.60;;;;;;;;;;4992796;28;20772;-51
2022/08/22 10:59:51;;;;;;;3.50;1.80;;;;;;;;;;4991720;28;20354;-53
2022/08/22 11:02:30;;;;;;;4.03;1.70;;;;;;;;;;4991363;28;20420;-52
2022/08/22 11:05:21;;;;;;;4.63;1.60;;;;;;;;;;4992558;28;20399;-52
2022/08/22 11:07:47;;;;;;;3.57;1.93;;;;;;;;;;4992669;28;20399;-52
2022/08/22 11:10:28;;;;;;;2.70;2.20;;;;;;;;;;4992427;28;20499;-52
2022/08/22 11:13:02;;;;;;;2.10;1.90;;;;;;;;;;4992616;28;20679;-52
2022/08/22 11:15:47;;;;;;;3.57;2.20;;;;;;;;;;4992511;28;20408;-52
2022/08/22 11:18:17;;;;;;;2.90;1.67;;;;;;;;;;4991919;28;20451;-52
2022/08/22 11:20:49;;;;;;;2.50;1.90;;;;;;;;;;4992460;28;20459;-52
2022/08/22 11:23:18;;;;;;;8.50;2.30;;;;;;;;;;4992569;28;20955;-53
2022/08/22 11:26:04;;;;;;;4.93;2.03;;;;;;;;;;4992386;28;20904;-52
2022/08/22 11:28:42;;;;;;;3.57;1.70;;;;;;;;;;4991040;28;20443;-52
2022/08/22 11:31:16;;;;;;;2.50;1.87;;;;;;;;;;4991442;28;20436;-50
2022/08/22 11:33:51;;;;;;;3.17;1.70;;;;;;;;;;4991589;28;20430;-50
2022/08/22 11:36:20;;;;;;;4.43;2.03;;;;;;;;;;4992293;28;20871;-50
2022/08/22 11:39:02;;;;;;;3.37;1.77;;;;;;;;;;4992039;28;20460;-50
2022/08/22 11:41:38;;;;;;;5.07;1.90;;;;;;;;;;4992421;28;20883;-50
2022/08/22 11:44:13;;;;;;;5.47;1.90;;;;;;;;;;4992431;28;20461;-50
2022/08/22 11:46:40;;;;;;;3.30;1.93;;;;;;;;;;4992401;28;20801;-50
2022/08/22 11:49:07;;;;;;;3.17;1.77;;;;;;;;;;4991936;28;20518;-51
2022/08/22 11:51:52;;;;;;;2.40;2.03;;;;;;;;;;4992222;28;20412;-51
2022/08/22 11:54:25;;;;;;;2.43;1.70;;;;;;;;;;4991816;28;20400;-51
2022/08/22 11:57:14;;;;;;;2.50;2.07;;;;;;;;;;4992231;28;20931;-50
2022/08/22 11:59:58;;;;;;;3.57;2.23;;;;;;;;;;4986241;28;20460;-50
2022/08/22 12:02:42;;;;;;;2.00;1.60;;;;;;;;;;4989630;28;20423;-50
2022/08/22 12:05:13;;;;;;;4.80;1.97;;;;;;;;;;4992058;28;20404;-50
2022/08/22 12:07:44;;;;;;;3.87;1.97;;;;;;;;;;4992125;28;20463;-50
2022/08/22 12:10:14;;;;;;;4.47;1.83;;;;;;;;;;4991819;28;20837;-50
2022/08/22 12:12:59;;;;;;;3.67;1.87;;;;;;;;;;4992019;28;20397;-50
2022/08/22 12:15:33;;;;;;;4.30;1.63;;;;;;;;;;4992149;28;20400;-49
2022/08/22 12:17:59;;;;;;;4.80;1.90;;;;;;;;;;4992091;28;20483;-49
2022/08/22 12:20:44;;;;;;;2.17;1.97;;;;;;;;;;4992156;28;20529;-48
2022/08/22 12:23:29;;;;;;;3.37;2.33;;;;;;;;;;4990141;28;20847;-49
2022/08/22 12:26:13;;;;;;;5.83;2.40;;;;;;;;;;4991466;28;20411;-50
2022/08/22 12:28:51;;;;;;;2.47;2.10;;;;;;;;;;4992334;28;20919;-49
2022/08/22 12:31:29;;;;;;;3.07;2.43;;;;;;;;;;4991782;28;20931;-52
2022/08/22 12:34:00;;;;;;;8.30;2.27;;;;;;;;;;4995184;28;20400;-52
2022/08/22 12:36:45;;;;;;;9.57;2.40;;;;;;;;;;4995124;28;20482;-50
2022/08/22 12:39:17;;;;;;;4.20;2.60;;;;;;;;;;4994877;28;20900;-49
2022/08/22 12:42:02;;;;;;;9.10;2.37;;;;;;;;;;4995266;28;20432;-49
2022/08/22 12:44:31;;;;;;;4.70;2.80;;;;;;;;;;4995096;28;20478;-50
2022/08/22 12:47:03;;;;;;;2.20;2.10;;;;;;;;;;4994911;28;20442;-51
2022/08/22 12:49:52;;;;;;;4.00;2.67;;;;;;;;;;4994750;28;20416;-51
2022/08/22 12:52:18;;;;;;;5.47;2.43;;;;;;;;;;4989765;28;20415;-50
2022/08/22 12:54:49;;;;;;;2.07;1.87;;;;;;;;;;4994770;28;20829;-50
2022/08/22 12:57:24;;;;;;;2.90;2.50;;;;;;;;;;4994917;28;20640;-52
2022/08/22 12:59:53;;;;;;;2.80;2.47;;;;;;;;;;4994560;28;20435;-49
2022/08/22 13:02:30;;;;;;;2.37;2.17;;;;;;;;;;4993765;28;20446;-49
2022/08/22 13:05:00;;;;;;;2.60;2.10;;;;;;;;;;4993993;28;20435;-52
2022/08/22 13:07:31;;;;;;;2.10;1.90;;;;;;;;;;4995098;28;20412;-50
2022/08/22 13:10:03;;;;;;;5.20;2.57;;;;;;;;;;4994373;28;20420;-49
2022/08/22 13:12:32;;;;;;;4.53;2.57;;;;;;;;;;4994692;28;20408;-52
2022/08/22 13:15:09;;;;;;;2.70;2.30;;;;;;;;;;4994537;28;20494;-50
2022/08/22 13:17:35;;;;;;;3.47;2.00;;;;;;;;;;4994544;28;20452;-51
2022/08/22 13:20:07;;;;;;;3.13;2.83;;;;;;;;;;4994511;28;20471;-50
2022/08/22 13:22:34;;;;;;;2.93;2.33;;;;;;;;;;4994616;28;20415;-49
2022/08/22 13:25:04;;;;;;;2.50;2.10;;;;;;;;;;4994450;28;20404;-49
2022/08/22 13:27:41;;;;;;;3.77;2.20;;;;;;;;;;4994467;28;20487;-49
2022/08/22 13:30:10;;;;;;;3.47;2.20;;;;;;;;;;4994021;28;20419;-49
2022/08/22 13:32:41;;;;;;;4.77;2.57;;;;;;;;;;4993444;28;20430;-50
2022/08/22 13:35:08;;;;;;;2.60;2.40;;;;;;;;;;4994470;28;20400;-50
2022/08/22 13:37:36;;;;;;;9.40;2.13;;;;;;;;;;4994244;28;20461;-49
2022/08/22 13:40:05;;;;;;;4.27;2.13;;;;;;;;;;4992661;28;20451;-49
2022/08/22 13:42:33;;;;;;;3.20;2.40;;;;;;;;;;4992344;28;20486;-53
2022/08/22 13:45:03;;;;;;;4.97;2.60;;;;;;;;;;4993086;28;20464;-48
2022/08/22 13:47:31;;;;;;;6.60;2.23;;;;;;;;;;4994221;28;20400;-52
2022/08/22 13:50:09;;;;;;;3.50;2.77;;;;;;;;;;4993623;28;20420;-49
2022/08/22 13:52:38;;;;;;;4.33;2.20;;;;;;;;;;4992944;28;20822;-49
2022/08/22 13:55:12;;;;;;;7.97;2.97;;;;;;;;;;4993767;28;20789;-54
2022/08/22 13:57:50;;;;;;;4.30;2.17;;;;;;;;;;4993750;28;20457;-50
2022/08/22 14:00:19;;;;;;;7.20;2.70;;;;;;;;;;4993714;28;20927;-51
2022/08/22 14:02:51;;;;;;;2.83;2.20;;;;;;;;;;4992510;28;20455;-50
2022/08/22 14:05:38;;;;;;;4.37;2.60;;;;;;;;;;4993612;28;20404;-49
2022/08/22 14:08:21;;;;;;;7.47;2.77;;;;;;;;;;4993344;28;20412;-50
2022/08/22 14:10:57;;;;;;;2.90;2.60;;;;;;;;;;4993493;28;20408;-50
2022/08/22 14:13:32;;;;;;;3.37;2.40;;;;;;;;;;4993489;28;20407;-48
2022/08/22 14:16:00;;;;;;;4.27;2.97;;;;;;;;;;4993251;28;20414;-50
2022/08/22 14:18:30;;;;;;;2.90;2.07;;;;;;;;;;4993069;28;20467;-53
2022/08/22 14:21:14;;;;;;;6.53;2.50;;;;;;;;;;4993260;28;20463;-48
2022/08/22 14:23:40;;;;;;;3.73;2.40;;;;;;;;;;4993418;28;20393;-52
2022/08/22 14:26:06;;;;;;;3.70;2.37;;;;;;;;;;4993199;28;20818;-53
2022/08/22 14:28:34;;;;;;;4.13;2.70;;;;;;;;;;4988328;28;20496;-48
2022/08/22 14:31:07;;;;;;;4.50;3.17;;;;;;;;;;4991072;28;20464;-49
2022/08/22 14:33:35;;;;;;;2.97;2.50;;;;;;;;;;4993080;28;20470;-50
2022/08/22 14:36:03;;;;;;;4.27;2.30;;;;;;;;;;4993097;28;20467;-51
2022/08/22 14:38:35;;;;;;;3.27;2.40;;;;;;;;;;4992654;28;20469;-51
2022/08/22 14:41:04;;;;;;;2.73;2.47;;;;;;;;;;4992823;28;20409;-49
2022/08/22 14:43:33;;;;;;;3.13;2.30;;;;;;;;;;4992893;28;20403;-51
2022/08/22 14:46:01;;;;;;;5.20;2.10;;;;;;;;;;4992824;28;20396;-49
2022/08/22 14:48:29;;;;;;;15.07;2.87;;;;;;;;;;4992714;28;20424;-50
2022/08/22 14:50:58;;;;;;;5.07;2.37;;;;;;;;;;4992467;28;20494;-53
2022/08/22 14:53:26;;;;;;;4.67;2.77;;;;;;;;;;4992297;28;20908;-50
2022/08/22 14:56:00;;;;;;;7.27;2.63;;;;;;;;;;4992561;28;20507;-50
2022/08/22 14:58:28;;;;;;;6.10;2.47;;;;;;;;;;4993057;28;20498;-52
2022/08/22 15:00:55;;;;;;;3.63;2.67;;;;;;;;;;4992557;28;20427;-52
2022/08/22 15:03:26;;;;;;;2.73;2.53;;;;;;;;;;4991923;28;20419;-51
2022/08/22 15:05:54;;;;;;;4.97;2.40;;;;;;;;;;4992211;28;20885;-51
2022/08/22 15:08:25;;;;;;;4.33;2.77;;;;;;;;;;4990976;28;20477;-52
2022/08/22 15:11:04;;;;;;;5.37;2.90;;;;;;;;;;4992395;28;20884;-53
2022/08/22 15:13:30;;;;;;;4.53;2.60;;;;;;;;;;4992719;28;20495;-49
2022/08/22 15:15:56;;;;;;;2.77;2.57;;;;;;;;;;4992005;28;20487;-53
2022/08/22 15:18:22;;;;;;;3.00;2.00;;;;;;;;;;4991759;28;20606;-52
2022/08/22 15:20:59;;;;;;;3.10;2.77;;;;;;;;;;4992142;28;20431;-52